createdAt,value
2022-12-06T14:06:26.078Z,152
2022-12-06T14:07:25.924Z,117
2022-12-06T14:08:25.940Z,83
2022-12-06T14:09:25.895Z,126
2022-12-06T14:10:25.909Z,85
2022-12-06T14:11:26.112Z,76
2022-12-06T14:12:25.916Z,98
2022-12-06T14:13:25.913Z,100
2022-12-06T14:14:25.934Z,147
2022-12-06T14:15:25.927Z,117
2022-12-06T14:16:26.150Z,90
2022-12-06T14:17:52.898Z,61
2022-12-06T14:18:25.922Z,112
2022-12-06T14:19:25.938Z,169
2022-12-06T14:20:25.919Z,104
2022-12-06T14:21:26.117Z,227
2022-12-06T14:22:25.906Z,109
2022-12-06T14:23:25.988Z,122
2022-12-06T14:24:25.940Z,135
2022-12-06T14:25:25.938Z,175
2022-12-06T14:26:26.093Z,212
2022-12-06T14:27:25.911Z,266
2022-12-06T14:28:25.938Z,269
2022-12-06T14:29:25.934Z,197
2022-12-06T14:30:26.431Z,189
2022-12-06T14:31:26.168Z,257
2022-12-06T14:32:25.914Z,187
2022-12-06T14:33:25.946Z,189
2022-12-06T14:34:25.922Z,287
2022-12-06T14:35:25.941Z,192
2022-12-06T14:36:26.122Z,202
2022-12-06T14:37:25.937Z,231
2022-12-06T14:38:25.939Z,178
2022-12-06T14:39:25.940Z,180
2022-12-06T14:40:44.308Z,181
2022-12-06T14:41:26.126Z,264
2022-12-06T14:42:25.918Z,192
2022-12-06T14:43:25.934Z,269
2022-12-06T14:44:25.926Z,269
2022-12-06T14:45:25.913Z,204
2022-12-06T14:46:26.186Z,184
2022-12-06T14:47:25.927Z,225
2022-12-06T14:48:25.945Z,193
2022-12-06T14:49:25.931Z,196
2022-12-06T14:50:25.919Z,268
2022-12-06T14:51:26.092Z,291
2022-12-06T14:52:25.950Z,334
2022-12-06T14:53:25.915Z,228
2022-12-06T14:54:25.961Z,319
2022-12-06T14:55:25.957Z,320
2022-12-06T14:56:26.125Z,289
2022-12-06T14:57:25.932Z,272
2022-12-06T14:58:25.913Z,199
2022-12-06T14:59:39.281Z,196
2022-12-06T15:00:27.302Z,289
2022-12-06T15:01:26.134Z,149
2022-12-06T15:02:25.946Z,331
2022-12-06T15:03:26.110Z,275
2022-12-06T15:04:26.015Z,232
2022-12-06T15:05:25.959Z,328
2022-12-06T15:06:26.136Z,328
2022-12-06T15:07:25.950Z,307
2022-12-06T15:08:26.027Z,228
2022-12-06T15:09:25.961Z,322
2022-12-06T15:10:25.949Z,323
2022-12-06T15:11:26.137Z,323
2022-12-06T15:12:25.954Z,255
2022-12-06T15:13:25.931Z,249
2022-12-06T15:14:25.952Z,258
2022-12-06T15:15:25.928Z,261
2022-12-06T15:16:26.201Z,246
2022-12-06T15:17:25.959Z,341
2022-12-06T15:18:25.929Z,348
2022-12-06T15:19:25.947Z,359
2022-12-06T15:20:25.933Z,365
2022-12-06T15:21:26.133Z,235
2022-12-06T15:22:25.964Z,255
2022-12-06T15:23:25.975Z,265
2022-12-06T15:24:25.964Z,261
2022-12-06T15:25:25.925Z,357
2022-12-06T15:26:26.118Z,383
2022-12-06T15:27:25.955Z,419
2022-12-06T15:28:25.943Z,305
2022-12-06T15:29:25.960Z,305
2022-12-06T15:30:25.929Z,296
2022-12-06T15:31:26.213Z,369
2022-12-06T15:32:25.941Z,236
2022-12-06T15:33:25.962Z,241
2022-12-06T15:34:25.947Z,231
2022-12-06T15:35:25.943Z,249
2022-12-06T15:36:26.112Z,242
2022-12-06T15:37:39.869Z,380
2022-12-06T15:38:25.954Z,268
2022-12-06T15:39:25.950Z,265
2022-12-06T15:40:25.958Z,366
2022-12-06T15:41:26.134Z,260
2022-12-06T15:42:25.939Z,264
2022-12-06T15:43:25.966Z,257
2022-12-06T15:44:25.963Z,367
2022-12-06T15:45:25.968Z,367
2022-12-06T15:46:26.175Z,243
2022-12-06T15:47:25.934Z,391
2022-12-06T15:48:25.967Z,262
2022-12-06T15:49:26.025Z,325
2022-12-06T15:50:25.978Z,371
2022-12-06T15:51:26.166Z,268
2022-12-06T15:52:25.947Z,331
2022-12-06T15:53:25.936Z,238
2022-12-06T15:54:25.935Z,341
2022-12-06T15:55:25.952Z,354
2022-12-06T15:56:26.138Z,234
2022-12-06T15:57:25.940Z,422
2022-12-06T15:58:25.971Z,348
2022-12-06T15:59:25.960Z,246
2022-12-06T16:00:25.976Z,239
2022-12-06T16:01:26.213Z,245
2022-12-06T16:03:25.961Z,278
2022-12-06T16:04:25.961Z,375
2022-12-06T16:05:25.951Z,241
2022-12-06T16:48:00.932Z,33
2022-12-06T17:02:01.147Z,35
2022-12-06T17:05:01.803Z,13
2022-12-06T17:06:01.062Z,20
2022-12-06T17:07:01.196Z,34
2022-12-06T17:09:00.996Z,17
2022-12-06T17:10:01.109Z,38
2022-12-06T17:11:01.040Z,14
2022-12-06T17:12:01.150Z,14
2022-12-06T17:17:01.163Z,0
2022-12-06T17:21:01.029Z,87
2022-12-06T17:22:01.334Z,77
2022-12-06T17:24:01.011Z,85
2022-12-06T17:28:00.997Z,90
2022-12-06T17:32:01.212Z,83
2022-12-06T17:34:01.003Z,98
2022-12-06T17:36:01.010Z,90
2022-12-06T17:42:01.173Z,63
2022-12-06T17:45:01.234Z,77
2022-12-06T17:47:01.193Z,55
2022-12-06T17:51:01.008Z,38
2022-12-06T17:52:01.164Z,37
2022-12-06T17:57:01.176Z,66
2022-12-06T18:00:01.035Z,32
2022-12-06T18:02:16.364Z,61
2022-12-06T18:03:01.073Z,59
2022-12-06T18:04:01.027Z,40
2022-12-06T18:05:01.470Z,56
2022-12-06T18:10:01.016Z,69
2022-12-06T18:13:02.585Z,48
2022-12-06T18:16:01.075Z,80
2022-12-06T18:21:01.026Z,50
2022-12-06T18:27:01.171Z,74
2022-12-06T18:30:01.301Z,44
2022-12-06T18:32:01.343Z,28
2022-12-06T18:33:01.063Z,48
2022-12-06T18:35:01.400Z,47
2022-12-06T18:37:01.175Z,43
2022-12-06T18:38:01.058Z,38
2022-12-06T18:40:01.236Z,73
